Time;durP1;ratioP1;P1;durP2;ratioP2;P2;SDS_P1;SDS_P2;PMS_P1;PMS_P2;Temp;Humidity;BMP_temperature;BMP_pressure;BME280_temperature;BME280_humidity;BME280_pressure;Samples;Min_cycle;Max_cycle;Signal;HPM_P1;HPM_P2
2021/06/22 00:00:21;;;;;;;7.82;5.85;;;13.00;63.50;;;;;;5076669;28;20343;-70
2021/06/22 00:02:49;;;;;;;10.60;6.43;;;12.90;63.50;;;;;;5077596;28;20060;-69
2021/06/22 00:05:19;;;;;;;12.30;6.43;;;12.90;63.60;;;;;;5063424;28;20379;-69
2021/06/22 00:07:53;;;;;;;13.32;6.53;;;12.80;63.80;;;;;;5092541;28;20059;-69
2021/06/22 00:10:30;;;;;;;9.82;6.05;;;12.80;64.10;;;;;;5077178;28;20048;-70
2021/06/22 00:12:59;;;;;;;9.90;6.43;;;12.80;64.20;;;;;;5076144;28;20052;-70
2021/06/22 00:15:31;;;;;;;9.82;6.30;;;12.80;64.30;;;;;;5086760;28;20512;-70
2021/06/22 00:17:59;;;;;;;10.60;6.65;;;12.80;64.30;;;;;;5094024;28;20056;-69
2021/06/22 00:20:27;;;;;;;10.10;6.25;;;12.60;64.40;;;;;;5075695;28;20094;-69
2021/06/22 00:22:55;;;;;;;11.27;5.70;;;12.60;64.60;;;;;;5094923;28;20398;-69
2021/06/22 00:25:25;;;;;;;13.13;6.15;;;12.60;64.60;;;;;;5083716;28;20055;-70
2021/06/22 00:27:54;;;;;;;10.27;5.28;;;12.60;64.60;;;;;;5093782;28;20056;-69
2021/06/22 00:30:24;;;;;;;13.00;5.35;;;12.60;64.50;;;;;;5077023;28;20465;-69
2021/06/22 00:32:53;;;;;;;10.35;5.00;;;12.60;64.50;;;;;;5095151;28;20060;-69
2021/06/22 00:35:22;;;;;;;8.15;5.55;;;12.50;64.30;;;;;;5094165;28;20059;-70
2021/06/22 00:37:51;;;;;;;6.68;5.10;;;12.50;64.30;;;;;;5077881;28;20054;-70
2021/06/22 00:40:19;;;;;;;7.10;4.90;;;12.50;64.20;;;;;;5074070;28;20067;-69
2021/06/22 00:42:47;;;;;;;9.93;5.10;;;12.50;64.10;;;;;;5093062;28;20055;-69
2021/06/22 00:45:31;;;;;;;6.40;4.82;;;12.50;64.00;;;;;;5077806;28;20044;-69
2021/06/22 00:48:04;;;;;;;7.85;4.88;;;12.50;64.10;;;;;;5090531;28;20091;-69
2021/06/22 00:50:33;;;;;;;11.23;5.40;;;12.50;64.10;;;;;;5058071;28;20045;-69
2021/06/22 00:53:06;;;;;;;6.82;5.20;;;12.40;64.20;;;;;;5076683;28;20401;-69
2021/06/22 00:55:34;;;;;;;10.80;5.20;;;12.40;64.20;;;;;;5086550;28;20497;-69
2021/06/22 00:58:28;;;;;;;;;;;12.40;64.10;;;;;;5085973;28;20044;-69
2021/06/22 01:01:00;;;;;;;6.03;4.50;;;12.30;64.00;;;;;;5076382;28;19920;-69
2021/06/22 01:03:29;;;;;;;8.67;4.63;;;12.30;63.90;;;;;;5088225;28;20048;-69
2021/06/22 01:06:03;;;;;;;7.70;4.78;;;12.30;64.00;;;;;;5056893;28;20127;-69
2021/06/22 01:08:33;;;;;;;11.13;5.20;;;12.30;64.20;;;;;;5056763;28;20470;-69
2021/06/22 01:11:02;;;;;;;6.95;4.90;;;12.20;64.30;;;;;;5056983;28;20048;-69
2021/06/22 01:13:30;;;;;;;10.50;5.63;;;12.20;64.20;;;;;;5073112;28;20040;-69
2021/06/22 01:15:58;;;;;;;7.10;5.05;;;12.20;64.20;;;;;;5056877;28;20446;-70
2021/06/22 01:18:28;;;;;;;10.02;5.30;;;12.20;64.20;;;;;;5058217;28;20060;-70
2021/06/22 01:21:31;;;;;;;10.02;5.32;;;12.20;64.20;;;;;;5058247;28;20068;-69
2021/06/22 01:24:11;;;;;;;5.55;4.30;;;12.10;64.30;;;;;;5070388;28;20059;-69
2021/06/22 01:26:47;;;;;;;9.18;4.90;;;12.10;64.40;;;;;;5095057;28;20488;-69
2021/06/22 01:29:16;;;;;;;9.55;5.10;;;12.00;64.60;;;;;;5091003;28;20047;-69
2021/06/22 01:31:45;;;;;;;10.25;5.30;;;12.00;64.60;;;;;;5089921;28;20470;-69
2021/06/22 01:34:21;;;;;;;9.82;5.15;;;12.00;64.60;;;;;;5061997;28;20064;-69
2021/06/22 01:36:50;;;;;;;9.13;5.25;;;12.00;64.70;;;;;;5071985;28;20481;-69
2021/06/22 01:39:19;;;;;;;10.77;5.40;;;12.00;64.80;;;;;;5076771;28;20056;-69
2021/06/22 01:41:49;;;;;;;6.93;5.40;;;12.00;64.80;;;;;;5059721;28;20055;-69
2021/06/22 01:44:18;;;;;;;10.20;5.82;;;11.90;64.90;;;;;;5076873;28;20074;-69
2021/06/22 01:46:48;;;;;;;10.55;5.72;;;11.90;65.00;;;;;;5058845;28;20480;-69
2021/06/22 01:49:16;;;;;;;9.40;5.68;;;11.80;64.90;;;;;;5093966;28;20059;-70
2021/06/22 01:51:44;;;;;;;8.27;5.18;;;11.80;64.80;;;;;;5090203;28;20055;-67
2021/06/22 01:54:14;;;;;;;11.10;6.00;;;11.80;64.90;;;;;;5090985;28;20060;-69
2021/06/22 01:56:49;;;;;;;10.13;5.60;;;11.80;65.10;;;;;;5056874;28;20063;-69
2021/06/22 01:59:23;;;;;;;10.98;6.15;;;11.70;65.20;;;;;;5092689;28;20044;-69
2021/06/22 02:02:06;;;;;;;7.10;6.00;;;11.70;65.20;;;;;;5074646;28;20067;-69
2021/06/22 02:04:43;;;;;;;8.88;5.93;;;11.70;65.20;;;;;;5077437;28;20051;-69
2021/06/22 02:07:14;;;;;;;10.50;6.20;;;11.60;65.20;;;;;;5096764;28;20044;-69
2021/06/22 02:09:45;;;;;;;12.40;6.40;;;11.60;65.20;;;;;;5098454;28;20048;-69
2021/06/22 02:12:23;;;;;;;8.00;5.95;;;11.60;65.20;;;;;;5071843;28;20059;-69
2021/06/22 02:14:51;;;;;;;10.98;5.95;;;11.50;65.20;;;;;;5072329;28;20051;-69
2021/06/22 02:17:20;;;;;;;12.05;6.20;;;11.50;65.30;;;;;;5070164;28;20052;-69
2021/06/22 02:19:50;;;;;;;8.60;6.57;;;11.50;65.40;;;;;;5076926;28;20049;-69
2021/06/22 02:22:39;;;;;;;7.43;6.15;;;11.40;65.40;;;;;;5060644;28;20051;-69
2021/06/22 02:25:10;;;;;;;11.73;6.18;;;11.30;65.50;;;;;;5060238;28;20048;-69
2021/06/22 02:27:40;;;;;;;10.45;5.78;;;11.30;65.50;;;;;;5048975;28;20386;-69
2021/06/22 02:30:20;;;;;;;8.80;6.47;;;11.30;65.50;;;;;;5061798;28;20382;-69
2021/06/22 02:32:50;;;;;;;9.05;5.82;;;11.30;65.50;;;;;;5074441;28;20040;-69
2021/06/22 02:35:24;;;;;;;8.65;5.85;;;11.30;65.40;;;;;;5078148;28;20045;-69
2021/06/22 02:38:00;;;;;;;7.72;6.15;;;11.30;65.30;;;;;;5080313;28;20051;-69
2021/06/22 02:40:29;;;;;;;9.48;6.07;;;11.30;65.30;;;;;;5063419;28;20056;-69
2021/06/22 02:43:00;;;;;;;9.73;6.82;;;11.30;65.30;;;;;;5080928;28;20055;-67
2021/06/22 02:45:29;;;;;;;12.38;6.93;;;11.30;65.40;;;;;;5097684;28;20492;-69
2021/06/22 02:47:57;;;;;;;10.45;6.38;;;11.30;65.40;;;;;;5062813;28;20053;-69
2021/06/22 02:50:32;;;;;;;8.85;6.22;;;11.20;65.50;;;;;;5043768;28;20052;-69
2021/06/22 02:53:01;;;;;;;15.07;6.70;;;11.30;65.60;;;;;;5061750;28;20044;-69
2021/06/22 02:55:30;;;;;;;8.40;6.50;;;11.20;65.70;;;;;;5089451;28;20044;-69
2021/06/22 02:58:04;;;;;;;14.82;6.85;;;11.20;65.70;;;;;;5080367;28;20068;-69
2021/06/22 03:00:33;;;;;;;9.63;6.53;;;11.20;65.70;;;;;;5075585;28;20060;-68
2021/06/22 03:03:07;;;;;;;8.82;6.28;;;11.20;65.80;;;;;;5060196;28;20470;-69
2021/06/22 03:05:41;;;;;;;7.68;6.30;;;11.20;65.90;;;;;;5076975;28;20072;-69
2021/06/22 03:08:10;;;;;;;9.75;6.65;;;11.20;65.90;;;;;;5094863;28;20378;-69
2021/06/22 03:10:41;;;;;;;8.70;6.68;;;11.20;65.80;;;;;;5075913;28;20063;-69
2021/06/22 03:13:09;;;;;;;9.98;6.45;;;11.10;65.70;;;;;;5076796;28;20052;-69
2021/06/22 03:15:37;;;;;;;9.40;7.18;;;11.10;65.80;;;;;;5074836;28;20056;-69
2021/06/22 03:18:05;;;;;;;9.30;6.88;;;11.10;65.80;;;;;;5077236;28;20068;-69
2021/06/22 03:20:38;;;;;;;;;;;11.10;65.90;;;;;;5058247;28;20053;-69
2021/06/22 03:23:12;;;;;;;7.23;6.37;;;11.00;65.90;;;;;;5061496;28;19920;-69
2021/06/22 03:25:41;;;;;;;10.75;6.93;;;11.00;65.90;;;;;;5070079;28;20044;-70
2021/06/22 03:28:09;;;;;;;12.27;7.03;;;11.00;65.90;;;;;;5077672;28;20059;-69
2021/06/22 03:30:44;;;;;;;10.20;6.75;;;10.90;66.00;;;;;;5079525;28;20055;-69
2021/06/22 03:33:12;;;;;;;12.98;6.68;;;10.90;66.00;;;;;;5097324;28;20044;-69
2021/06/22 03:35:40;;;;;;;10.32;7.40;;;10.90;66.10;;;;;;5073746;28;20055;-69
2021/06/22 03:38:10;;;;;;;8.88;6.88;;;10.90;66.20;;;;;;5076302;28;20044;-70
2021/06/22 03:40:38;;;;;;;12.02;7.18;;;10.80;66.20;;;;;;5059830;28;20059;-69
2021/06/22 03:43:07;;;;;;;10.05;7.15;;;10.80;66.20;;;;;;5062449;28;20044;-69
2021/06/22 03:45:42;;;;;;;9.88;6.97;;;10.80;66.30;;;;;;5057763;28;20048;-69
2021/06/22 03:48:10;;;;;;;9.80;7.15;;;10.80;66.30;;;;;;5070676;28;20040;-69
2021/06/22 03:50:40;;;;;;;15.35;6.43;;;10.70;66.50;;;;;;5064818;28;20051;-68
2021/06/22 03:53:10;;;;;;;10.80;6.97;;;10.60;66.70;;;;;;5068670;28;20041;-70
2021/06/22 03:55:38;;;;;;;12.23;7.43;;;10.60;66.80;;;;;;5075533;28;20056;-70
2021/06/22 03:58:14;;;;;;;13.77;7.53;;;10.50;66.90;;;;;;5081330;28;20059;-69
2021/06/22 04:00:50;;;;;;;9.85;7.40;;;10.40;67.00;;;;;;5078634;28;20063;-69
2021/06/22 04:03:25;;;;;;;13.05;7.78;;;10.40;66.90;;;;;;5076117;28;20478;-69
2021/06/22 04:06:12;;;;;;;11.18;7.57;;;10.40;66.90;;;;;;5075362;28;20048;-69
2021/06/22 04:08:41;;;;;;;11.07;7.32;;;10.40;66.90;;;;;;5073335;28;20056;-70
2021/06/22 04:11:16;;;;;;;14.70;7.97;;;10.40;66.90;;;;;;5065885;28;20482;-69
2021/06/22 04:13:44;;;;;;;10.27;8.40;;;10.40;66.90;;;;;;5077407;28;20039;-69
2021/06/22 04:16:12;;;;;;;13.35;8.30;;;10.40;66.90;;;;;;5088617;28;20055;-68
2021/06/22 04:18:43;;;;;;;14.15;8.57;;;10.40;66.90;;;;;;5084687;28;20044;-69
2021/06/22 04:21:17;;;;;;;13.52;8.15;;;10.40;66.90;;;;;;5050482;28;20067;-69
2021/06/22 04:23:47;;;;;;;17.15;8.82;;;10.40;67.00;;;;;;5075709;28;20474;-69
2021/06/22 04:26:16;;;;;;;14.68;8.30;;;10.40;67.00;;;;;;5041224;28;20055;-69
2021/06/22 04:28:45;;;;;;;14.27;8.20;;;10.40;67.10;;;;;;5086258;28;20040;-69
2021/06/22 04:31:13;;;;;;;12.38;8.02;;;10.40;67.20;;;;;;5088798;28;20044;-70
2021/06/22 04:33:46;;;;;;;11.93;8.32;;;10.30;67.30;;;;;;5074409;28;20048;-69
2021/06/22 04:36:15;;;;;;;14.48;8.35;;;10.40;67.40;;;;;;5084106;28;20048;-69
2021/06/22 04:38:43;;;;;;;10.93;7.65;;;10.40;67.40;;;;;;5074538;28;20052;-69
2021/06/22 04:41:11;;;;;;;10.15;7.40;;;10.40;67.40;;;;;;5074424;28;20048;-69
2021/06/22 04:43:39;;;;;;;14.90;8.35;;;10.40;67.60;;;;;;5075540;28;20060;-69
2021/06/22 04:46:07;;;;;;;11.20;8.23;;;10.40;67.60;;;;;;5040820;28;20470;-69
2021/06/22 04:48:38;;;;;;;12.43;8.25;;;10.40;67.70;;;;;;5073005;28;20060;-69
2021/06/22 04:51:06;;;;;;;14.93;8.35;;;10.40;67.80;;;;;;5075056;28;20071;-70
2021/06/22 04:53:34;;;;;;;11.13;8.38;;;10.40;67.80;;;;;;5056637;28;20059;-69
2021/06/22 04:56:02;;;;;;;11.80;8.27;;;10.40;67.90;;;;;;5056733;28;20056;-69
2021/06/22 04:58:31;;;;;;;10.63;8.07;;;10.30;68.00;;;;;;5085622;28;20062;-70
2021/06/22 05:01:02;;;;;;;16.88;9.40;;;10.40;68.10;;;;;;5071457;28;20072;-69
2021/06/22 05:03:32;;;;;;;13.98;9.13;;;10.40;68.20;;;;;;5084310;28;20056;-69
2021/06/22 05:06:00;;;;;;;12.80;8.23;;;10.40;68.20;;;;;;5075021;28;20474;-70
2021/06/22 05:08:28;;;;;;;14.32;9.18;;;10.40;68.30;;;;;;5073600;28;20489;-70
2021/06/22 05:10:56;;;;;;;17.45;9.95;;;10.30;68.30;;;;;;5057051;28;20053;-70
2021/06/22 05:13:26;;;;;;;12.95;8.82;;;10.40;68.30;;;;;;5075157;28;20052;-69
2021/06/22 05:15:54;;;;;;;17.73;9.35;;;10.40;68.40;;;;;;5074190;28;20454;-69
2021/06/22 05:18:22;;;;;;;12.40;9.25;;;10.40;68.30;;;;;;5056544;28;20048;-70
2021/06/22 05:20:50;;;;;;;11.98;9.45;;;10.50;68.40;;;;;;5056166;28;20052;-69
2021/06/22 05:23:18;;;;;;;13.95;9.38;;;10.50;68.40;;;;;;5078505;28;20052;-70
2021/06/22 05:25:47;;;;;;;20.63;9.32;;;10.50;68.50;;;;;;5057451;28;20057;-69
2021/06/22 05:28:14;;;;;;;13.90;9.45;;;10.50;68.60;;;;;;5063973;28;20470;-70
2021/06/22 05:30:42;;;;;;;13.55;9.30;;;10.50;68.70;;;;;;5095096;28;20048;-70
2021/06/22 05:33:10;;;;;;;13.35;9.43;;;10.50;68.90;;;;;;5077090;28;20047;-69
2021/06/22 05:35:38;;;;;;;16.08;9.65;;;10.60;68.90;;;;;;5076092;28;20048;-70
2021/06/22 05:38:06;;;;;;;16.15;9.23;;;10.60;69.00;;;;;;5077234;28;20059;-70
2021/06/22 05:40:35;;;;;;;12.57;9.02;;;10.60;69.00;;;;;;5093475;28;20056;-69
2021/06/22 05:43:03;;;;;;;20.35;9.70;;;10.60;69.10;;;;;;5099596;28;20058;-70
2021/06/22 05:45:32;;;;;;;17.77;10.15;;;10.60;69.10;;;;;;5098987;28;20048;-69
2021/06/22 05:48:00;;;;;;;16.02;10.63;;;10.70;69.00;;;;;;5098054;28;20060;-69
2021/06/22 05:50:29;;;;;;;17.65;10.30;;;10.70;68.90;;;;;;5091756;28;20044;-68
2021/06/22 05:52:57;;;;;;;15.73;10.02;;;10.70;68.80;;;;;;5099320;28;20062;-69
2021/06/22 05:55:28;;;;;;;19.48;10.02;;;10.70;68.80;;;;;;5097674;28;20048;-69
2021/06/22 05:57:59;;;;;;;21.52;11.07;;;10.70;68.70;;;;;;5099193;28;20070;-69
2021/06/22 06:00:29;;;;;;;15.38;10.68;;;10.70;68.70;;;;;;5098094;28;20058;-70
2021/06/22 06:02:58;;;;;;;15.95;11.25;;;10.80;68.70;;;;;;5098731;28;20048;-70
2021/06/22 06:05:27;;;;;;;20.65;11.43;;;10.80;68.80;;;;;;5081028;28;20052;-70
2021/06/22 06:07:55;;;;;;;17.85;10.77;;;10.80;68.90;;;;;;5079909;28;20063;-70
2021/06/22 06:10:24;;;;;;;14.93;10.27;;;10.80;68.90;;;;;;5098473;28;20067;-70
2021/06/22 06:12:52;;;;;;;18.73;11.43;;;10.80;68.90;;;;;;5102668;28;20059;-69
2021/06/22 06:15:20;;;;;;;13.65;10.70;;;10.80;69.00;;;;;;5091600;28;20044;-69
2021/06/22 06:17:48;;;;;;;14.50;10.52;;;10.80;69.00;;;;;;5111382;28;20043;-69
2021/06/22 06:20:17;;;;;;;20.27;10.63;;;10.80;69.10;;;;;;5108940;28;20055;-69
2021/06/22 06:22:46;;;;;;;16.02;9.63;;;10.90;69.20;;;;;;5107336;28;20052;-69
2021/06/22 06:25:15;;;;;;;13.68;10.10;;;10.90;69.20;;;;;;5086484;28;20044;-70
2021/06/22 06:27:50;;;;;;;13.15;9.43;;;10.90;69.20;;;;;;5103939;28;20485;-69
2021/06/22 06:30:23;;;;;;;14.88;9.60;;;10.90;69.20;;;;;;5101613;28;20059;-69
2021/06/22 06:32:53;;;;;;;17.05;9.43;;;11.00;69.40;;;;;;5085227;28;20050;-69
2021/06/22 06:35:22;;;;;;;12.65;8.88;;;11.00;69.40;;;;;;5104524;28;20358;-70
2021/06/22 06:37:51;;;;;;;18.40;8.50;;;11.10;69.40;;;;;;5083650;28;20044;-69
2021/06/22 06:40:19;;;;;;;14.40;9.20;;;11.10;69.40;;;;;;5099551;28;20355;-69
2021/06/22 06:42:47;;;;;;;10.80;7.78;;;11.20;69.40;;;;;;5084502;28;20059;-69
2021/06/22 06:45:17;;;;;;;10.00;8.40;;;11.30;69.40;;;;;;5079670;28;20052;-69
2021/06/22 06:47:47;;;;;;;18.13;9.07;;;11.30;69.30;;;;;;5083932;28;20048;-69
2021/06/22 06:50:15;;;;;;;14.50;9.45;;;11.30;69.40;;;;;;5100300;28;20048;-70
2021/06/22 06:52:44;;;;;;;15.55;9.70;;;11.30;69.30;;;;;;5093034;28;20040;-70
2021/06/22 06:55:26;;;;;;;18.20;8.88;;;11.30;69.30;;;;;;5099484;28;20461;-69
2021/06/22 06:57:56;;;;;;;13.68;8.48;;;11.40;69.20;;;;;;5082820;28;20066;-69
2021/06/22 07:00:25;;;;;;;19.40;8.77;;;11.50;69.10;;;;;;5097333;28;20059;-70
2021/06/22 07:02:53;;;;;;;11.45;8.55;;;11.50;69.20;;;;;;5096404;28;20056;-69
2021/06/22 07:05:22;;;;;;;13.90;8.27;;;11.50;69.30;;;;;;5105629;28;20048;-69
2021/06/22 07:07:50;;;;;;;17.52;8.40;;;11.60;69.30;;;;;;5087628;28;20059;-70
2021/06/22 07:10:18;;;;;;;17.38;7.32;;;11.70;69.20;;;;;;5070623;28;20059;-70
2021/06/22 07:12:47;;;;;;;11.68;7.63;;;11.70;69.10;;;;;;5106089;28;20048;-69
2021/06/22 07:15:15;;;;;;;14.93;8.85;;;11.80;69.10;;;;;;5070736;28;20356;-69
2021/06/22 07:17:43;;;;;;;14.77;9.30;;;11.80;69.10;;;;;;5094816;28;20057;-69
2021/06/22 07:20:12;;;;;;;18.92;9.73;;;11.90;69.20;;;;;;5096544;28;20059;-69
2021/06/22 07:22:40;;;;;;;13.63;8.60;;;11.90;69.20;;;;;;5093997;28;20142;-69
2021/06/22 07:25:14;;;;;;;14.80;8.30;;;12.00;69.20;;;;;;5088166;28;20060;-69
2021/06/22 07:27:43;;;;;;;19.70;9.15;;;12.00;69.20;;;;;;5102166;28;20048;-69
2021/06/22 07:30:12;;;;;;;16.88;8.65;;;12.10;69.10;;;;;;5075742;28;20055;-69
2021/06/22 07:32:39;;;;;;;13.85;9.05;;;12.10;69.00;;;;;;5077077;28;20066;-69
2021/06/22 07:35:08;;;;;;;12.88;8.30;;;12.20;69.00;;;;;;5088775;28;20044;-69
2021/06/22 07:37:36;;;;;;;13.95;8.55;;;12.20;69.00;;;;;;5083839;28;20052;-69
2021/06/22 07:40:05;;;;;;;13.88;8.15;;;12.30;69.00;;;;;;5103456;28;20397;-69
2021/06/22 07:42:33;;;;;;;17.20;8.13;;;12.30;69.00;;;;;;5093017;28;20047;-69
2021/06/22 07:45:02;;;;;;;12.48;8.10;;;12.40;68.90;;;;;;5096002;28;20051;-69
2021/06/22 07:47:32;;;;;;;13.77;7.47;;;12.50;68.80;;;;;;5084079;28;20399;-69
2021/06/22 07:50:00;;;;;;;19.83;7.82;;;12.60;68.70;;;;;;5066988;28;20044;-69
2021/06/22 07:52:28;;;;;;;10.45;6.93;;;12.60;68.60;;;;;;5085767;28;20048;-69
2021/06/22 07:54:56;;;;;;;13.48;7.10;;;12.70;68.50;;;;;;5074835;28;20059;-69
2021/06/22 07:57:24;;;;;;;11.10;6.70;;;12.80;68.60;;;;;;5096372;28;20058;-69
2021/06/22 07:59:52;;;;;;;12.82;6.50;;;12.80;68.40;;;;;;5056107;28;20044;-69
2021/06/22 08:02:21;;;;;;;11.82;5.93;;;12.90;68.10;;;;;;5101219;28;20048;-69
2021/06/22 08:04:48;;;;;;;13.82;6.45;;;12.90;67.90;;;;;;5097559;28;20059;-70
2021/06/22 08:07:16;;;;;;;12.57;5.97;;;13.00;67.50;;;;;;5095859;28;20048;-70
2021/06/22 08:09:44;;;;;;;13.68;6.25;;;13.00;67.30;;;;;;5094779;28;20059;-69
2021/06/22 08:12:13;;;;;;;10.43;5.97;;;13.10;67.30;;;;;;5076774;28;20469;-70
2021/06/22 08:14:41;;;;;;;12.20;6.05;;;13.20;67.10;;;;;;5092186;28;20505;-69
2021/06/22 08:17:09;;;;;;;8.75;6.03;;;13.30;66.80;;;;;;5078501;28;20485;-70
2021/06/22 08:19:37;;;;;;;10.18;6.15;;;13.30;66.70;;;;;;5093885;28;20458;-69
2021/06/22 08:22:05;;;;;;;9.52;6.50;;;13.30;66.60;;;;;;5092357;28;20066;-70
2021/06/22 08:24:33;;;;;;;15.52;6.40;;;13.40;66.40;;;;;;5084859;28;20051;-69
2021/06/22 08:27:01;;;;;;;9.55;6.43;;;13.50;66.20;;;;;;5089243;28;20052;-69
2021/06/22 08:29:29;;;;;;;14.23;6.85;;;13.50;65.90;;;;;;5093688;28;20502;-69
2021/06/22 08:31:57;;;;;;;11.43;6.70;;;13.60;65.90;;;;;;5093454;28;20044;-69
2021/06/22 08:34:25;;;;;;;13.07;7.40;;;13.70;65.80;;;;;;5089260;28;20047;-69
2021/06/22 08:36:53;;;;;;;14.18;7.00;;;13.70;65.60;;;;;;5091846;28;20044;-70
2021/06/22 08:39:21;;;;;;;12.18;6.47;;;13.80;65.30;;;;;;5091556;28;20044;-69
2021/06/22 08:41:52;;;;;;;13.65;6.55;;;13.80;65.10;;;;;;5095821;28;20117;-69
2021/06/22 08:44:24;;;;;;;15.80;6.65;;;13.80;65.10;;;;;;5094378;28;20078;-69
2021/06/22 08:46:52;;;;;;;10.55;7.05;;;13.90;65.10;;;;;;5075007;28;20385;-69
2021/06/22 08:49:20;;;;;;;10.18;7.15;;;14.00;64.80;;;;;;5093105;28;20052;-69
2021/06/22 08:51:49;;;;;;;10.20;6.00;;;14.10;64.50;;;;;;5080681;28;20049;-69
2021/06/22 08:54:23;;;;;;;9.07;5.55;;;14.20;64.50;;;;;;5070148;28;20446;-69
2021/06/22 08:56:54;;;;;;;13.40;4.75;;;14.30;64.10;;;;;;5062707;28;20059;-69
2021/06/22 08:59:22;;;;;;;9.43;5.00;;;14.30;63.30;;;;;;5077120;28;20044;-70
2021/06/22 09:01:50;;;;;;;11.95;5.18;;;14.40;62.90;;;;;;5091955;28;20052;-69
2021/06/22 09:04:19;;;;;;;11.10;5.28;;;14.50;62.40;;;;;;5075508;28;20052;-70
2021/06/22 09:06:47;;;;;;;9.38;4.85;;;14.60;61.80;;;;;;5075338;28;20370;-69
2021/06/22 09:09:15;;;;;;;17.50;4.53;;;14.60;61.60;;;;;;5094127;28;20043;-70
2021/06/22 09:12:03;;;;;;;15.32;5.13;;;14.60;61.40;;;;;;5092397;28;20056;-69
2021/06/22 09:14:39;;;;;;;14.13;5.70;;;14.60;60.90;;;;;;5092930;28;20055;-69
2021/06/22 09:17:08;;;;;;;11.80;4.75;;;14.70;61.00;;;;;;5094085;28;20040;-70
2021/06/22 09:19:37;;;;;;;9.27;4.93;;;14.70;60.80;;;;;;5104772;28;20040;-69
2021/06/22 09:22:16;;;;;;;9.30;3.90;;;14.70;60.70;;;;;;5093254;28;20048;-69
2021/06/22 09:25:08;;;;;;;14.98;3.90;;;14.70;60.10;;;;;;5096598;28;20461;-69
2021/06/22 09:27:51;;;;;;;7.57;3.20;;;14.70;60.00;;;;;;5091069;28;20225;-70
2021/06/22 09:30:38;;;;;;;5.67;3.40;;;14.80;60.10;;;;;;5076134;28;20066;-69
2021/06/22 09:33:27;;;;;;;8.93;3.55;;;15.00;59.10;;;;;;5088549;28;20315;-70
2021/06/22 09:36:15;;;;;;;6.53;3.25;;;15.10;58.50;;;;;;5070816;28;20052;-69
2021/06/22 09:39:06;;;;;;;8.82;3.15;;;15.10;58.00;;;;;;5073586;28;20079;-70
2021/06/22 09:41:40;;;;;;;6.80;3.17;;;15.20;57.80;;;;;;5085303;28;20055;-69
2021/06/22 09:44:11;;;;;;;6.35;3.28;;;15.30;57.50;;;;;;5100837;28;20471;-70
2021/06/22 09:46:40;;;;;;;7.00;2.83;;;15.40;57.40;;;;;;5086007;28;20052;-70
2021/06/22 09:49:31;;;;;;;2.70;2.17;;;15.60;56.50;;;;;;5075072;28;20061;-69
2021/06/22 09:52:14;;;;;;;6.68;2.72;;;15.80;54.60;;;;;;5090708;28;20048;-70
2021/06/22 09:54:42;;;;;;;4.95;2.13;;;16.00;53.80;;;;;;5038588;28;20045;-70
2021/06/22 09:57:20;;;;;;;18.23;2.63;;;16.30;52.80;;;;;;5086830;28;20450;-69
2021/06/22 09:59:53;;;;;;;10.73;2.38;;;16.40;51.30;;;;;;5073508;28;20059;-69
2021/06/22 10:02:24;;;;;;;6.93;2.65;;;16.50;50.60;;;;;;5082857;28;20060;-70
2021/06/22 10:05:00;;;;;;;3.58;2.80;;;16.40;49.80;;;;;;5073370;28;20056;-70
2021/06/22 10:07:29;;;;;;;3.47;2.33;;;16.40;49.40;;;;;;5057898;28;20055;-69
2021/06/22 10:10:03;;;;;;;9.60;2.60;;;16.40;49.50;;;;;;5086953;28;20067;-70
2021/06/22 10:12:34;;;;;;;13.02;3.10;;;16.60;49.70;;;;;;5072386;28;20052;-69
2021/06/22 10:15:03;;;;;;;12.73;3.25;;;16.70;49.40;;;;;;5072995;28;20476;-71
2021/06/22 10:17:32;;;;;;;9.02;3.28;;;16.80;49.10;;;;;;5075639;28;20059;-70
2021/06/22 10:20:07;;;;;;;9.43;3.45;;;16.90;49.40;;;;;;5092318;28;20056;-69
2021/06/22 10:22:36;;;;;;;4.43;3.15;;;16.90;49.60;;;;;;5062302;28;20053;-70
2021/06/22 10:25:08;;;;;;;9.93;2.97;;;17.00;49.80;;;;;;5080861;28;20064;-69
2021/06/22 10:27:36;;;;;;;7.60;2.58;;;17.10;50.00;;;;;;5077235;28;20052;-70
2021/06/22 10:30:06;;;;;;;6.65;2.13;;;17.30;49.70;;;;;;5096346;28;20052;-70
2021/06/22 10:32:35;;;;;;;29.67;3.17;;;17.40;48.50;;;;;;5083214;28;20055;-70
2021/06/22 10:35:13;;;;;;;8.15;2.50;;;17.70;47.60;;;;;;5081207;28;20059;-69
2021/06/22 10:37:53;;;;;;;5.45;2.20;;;17.70;47.10;;;;;;5091852;28;20429;-70
2021/06/22 10:40:28;;;;;;;6.25;2.30;;;17.70;46.40;;;;;;5086894;28;20051;-69
2021/06/22 10:42:58;;;;;;;13.93;2.95;;;17.50;46.00;;;;;;5090134;28;20056;-69
2021/06/22 10:45:59;;;;;;;8.25;2.90;;;17.40;46.10;;;;;;5066096;28;20052;-69
2021/06/22 10:48:38;;;;;;;31.67;3.17;;;17.30;46.30;;;;;;5076323;28;20469;-70
2021/06/22 10:51:30;;;;;;;16.42;2.60;;;17.30;46.00;;;;;;5094974;28;20052;-69
2021/06/22 10:53:59;;;;;;;12.43;2.67;;;17.20;45.40;;;;;;5103716;28;20048;-70
2021/06/22 10:56:29;;;;;;;18.75;2.63;;;17.20;45.40;;;;;;5078312;28;20052;-69
2021/06/22 10:59:14;;;;;;;12.10;2.30;;;17.40;45.20;;;;;;5061549;28;20071;-69
2021/06/22 11:01:58;;;;;;;4.22;2.03;;;17.70;44.50;;;;;;5088293;28;20047;-69
2021/06/22 11:04:29;;;;;;;8.63;2.20;;;18.00;44.10;;;;;;5086089;28;20048;-69
2021/06/22 11:07:16;;;;;;;12.98;2.80;;;18.30;44.10;;;;;;5076766;28;20497;-70
2021/06/22 11:10:11;;;;;;;19.25;3.00;;;18.60;43.40;;;;;;5095268;28;20055;-67
2021/06/22 11:12:47;;;;;;;31.52;3.50;;;18.60;43.20;;;;;;5075882;28;20057;-69
2021/06/22 11:15:16;;;;;;;21.67;2.72;;;18.60;43.40;;;;;;5087110;28;20413;-69
2021/06/22 11:17:43;;;;;;;10.77;2.80;;;18.50;43.40;;;;;;5087087;28;20051;-67
2021/06/22 11:20:14;;;;;;;15.10;2.80;;;18.40;43.00;;;;;;5109854;28;20054;-70
2021/06/22 11:22:55;;;;;;;30.55;2.60;;;18.30;43.00;;;;;;5102373;28;20048;-69
2021/06/22 11:25:23;;;;;;;16.52;3.30;;;18.30;43.10;;;;;;5065166;28;20410;-69
2021/06/22 11:28:04;;;;;;;9.13;2.63;;;18.20;43.20;;;;;;5087502;28;20347;-70
2021/06/22 11:30:50;;;;;;;30.08;3.10;;;18.20;43.20;;;;;;5097440;28;20053;-68
2021/06/22 11:33:46;;;;;;;14.57;2.60;;;18.20;43.00;;;;;;5083693;28;20044;-70
2021/06/22 11:36:20;;;;;;;4.57;2.33;;;18.10;42.90;;;;;;5113518;28;20469;-70
2021/06/22 11:39:09;;;;;;;8.23;2.55;;;18.10;43.20;;;;;;5059925;28;20055;-70
2021/06/22 11:41:38;;;;;;;8.68;2.75;;;18.30;43.40;;;;;;5094951;28;20560;-70
2021/06/22 11:44:07;;;;;;;7.57;2.30;;;18.40;43.30;;;;;;5095671;28;20040;-67
2021/06/22 11:46:37;;;;;;;30.58;2.90;;;18.70;43.00;;;;;;5079569;28;20048;-69
2021/06/22 11:49:05;;;;;;;13.13;2.20;;;18.80;42.20;;;;;;5081848;28;20501;-70
2021/06/22 11:52:03;;;;;;;11.00;3.20;;;18.80;41.30;;;;;;5083712;28;20059;-70
2021/06/22 11:54:46;;;;;;;7.43;2.60;;;19.00;40.60;;;;;;5050515;28;20061;-69
2021/06/22 11:57:27;;;;;;;4.38;2.22;;;19.30;40.40;;;;;;5084691;28;20059;-70
2021/06/22 12:00:28;;;;;;;4.47;2.50;;;19.60;40.10;;;;;;5075001;28;20071;-70
2021/06/22 12:02:58;;;;;;;5.20;2.30;;;19.80;39.00;;;;;;5071119;28;20071;-71
2021/06/22 12:05:30;;;;;;;24.63;3.58;;;19.90;38.10;;;;;;5099062;28;20040;-70
2021/06/22 12:08:00;;;;;;;20.73;2.72;;;19.90;38.10;;;;;;5053859;28;20458;-71
2021/06/22 12:10:40;;;;;;;10.70;2.72;;;19.90;38.30;;;;;;5066588;28;20505;-70
2021/06/22 12:13:10;;;;;;;12.13;3.50;;;19.80;38.60;;;;;;5088233;28;20055;-69
2021/06/22 12:15:43;;;;;;;9.18;3.33;;;19.60;39.10;;;;;;5097665;28;20059;-70
2021/06/22 12:18:13;;;;;;;12.80;3.27;;;19.50;39.40;;;;;;5077262;28;20044;-69
2021/06/22 12:20:43;;;;;;;15.65;2.97;;;19.30;39.60;;;;;;5091297;28;20043;-69
2021/06/22 12:23:17;;;;;;;17.90;3.33;;;19.20;40.00;;;;;;5077623;28;20382;-69
2021/06/22 12:25:55;;;;;;;18.75;3.35;;;19.20;40.20;;;;;;5081858;28;20048;-70
2021/06/22 12:28:24;;;;;;;9.00;2.70;;;19.30;40.00;;;;;;5067126;28;20055;-70
2021/06/22 12:30:57;;;;;;;16.92;3.00;;;19.30;39.50;;;;;;5084600;28;20055;-69
2021/06/22 16:15:14;;;;;;;2.97;2.78;;;24.00;41.90;;;;;;4961489;28;20388;-88
2021/06/22 16:18:05;;;;;;;4.78;3.50;;;23.80;42.50;;;;;;4988627;28;20046;-89
2021/06/22 16:20:39;;;;;;;5.18;3.38;;;23.30;42.20;;;;;;4949179;28;20043;-88
2021/06/22 16:23:25;;;;;;;6.32;3.40;;;23.00;42.90;;;;;;4992481;28;20062;-89
2021/06/22 16:26:10;;;;;;;4.13;3.33;;;22.70;42.90;;;;;;4983116;28;20050;-89
2021/06/22 16:28:58;;;;;;;5.38;3.30;;;22.40;42.70;;;;;;4979030;28;20038;-88
2021/06/22 16:31:52;;;;;;;4.22;3.00;;;22.20;42.70;;;;;;4989661;28;20051;-90
2021/06/22 16:35:23;;;;;;;9.68;3.38;;;22.00;43.20;;;;;;4976333;28;20055;-88
2021/06/22 16:38:32;;;;;;;3.85;3.10;;;21.90;43.80;;;;;;5018718;28;20356;-90
2021/06/22 16:41:27;;;;;;;4.43;3.20;;;21.90;44.30;;;;;;5081339;28;20090;-87
2021/06/22 16:44:22;;;;;;;;;;;21.90;44.60;;;;;;5078776;28;20052;-89
2021/06/22 16:46:52;;;;;;;10.95;3.13;;;21.80;44.90;;;;;;5087617;28;19920;-84
2021/06/22 16:49:25;;;;;;;17.80;3.17;;;21.80;45.20;;;;;;5086927;28;20067;-86